Time;durP1;ratioP1;P1;durP2;ratioP2;P2;SDS_P1;SDS_P2;PMS_P1;PMS_P2;Temp;Humidity;BMP_temperature;BMP_pressure;BME280_temperature;BME280_humidity;BME280_pressure;Samples;Min_cycle;Max_cycle;Signal;HPM_P1;HPM_P2
2022/05/11 00:02:07;;;;;;;9.30;5.10;;;;;;;9.14;78.60;101302.20;109773;1232;72369;-78
2022/05/11 00:04:35;;;;;;;7.70;5.20;;;;;;;9.15;78.28;101303.31;110141;1232;62063;-83
2022/05/11 00:07:04;;;;;;;9.60;5.00;;;;;;;9.19;78.35;101301.69;110463;1230;59268;-83
2022/05/11 00:09:34;;;;;;;7.90;5.00;;;;;;;9.21;78.16;101299.89;110291;1232;71667;-82
2022/05/11 00:12:06;;;;;;;8.00;5.00;;;;;;;9.22;78.21;101298.22;110367;1232;72289;-80
2022/05/11 00:14:33;;;;;;;8.40;5.50;;;;;;;9.17;78.03;101300.47;110277;1230;69443;-82
2022/05/11 00:17:01;;;;;;;7.40;5.20;;;;;;;9.16;78.21;101302.77;110359;1230;71132;-81
2022/05/11 00:19:29;;;;;;;11.80;5.70;;;;;;;9.18;77.98;101300.20;110194;1232;62929;-83
2022/05/11 00:21:57;;;;;;;7.20;5.20;;;;;;;9.17;76.67;101296.98;109956;1230;60919;-81
2022/05/11 00:24:25;;;;;;;8.40;5.20;;;;;;;9.12;77.13;101299.84;110221;1230;72157;-81
2022/05/11 00:26:53;;;;;;;6.90;4.90;;;;;;;9.02;78.62;101295.89;110020;1232;72410;-81
2022/05/11 00:29:21;;;;;;;9.40;5.80;;;;;;;9.02;79.05;101301.66;110145;1230;70288;-80
2022/05/11 00:31:48;;;;;;;8.60;5.50;;;;;;;9.05;78.52;101298.02;110331;1231;71756;-82
2022/05/11 00:34:15;;;;;;;11.00;6.10;;;;;;;9.05;78.75;101299.19;110489;1230;62239;-83
2022/05/11 00:36:43;;;;;;;9.10;5.30;;;;;;;9.11;78.71;101299.73;109873;1230;60976;-80
2022/05/11 00:39:10;;;;;;;9.90;5.70;;;;;;;9.16;78.15;101300.50;109849;1232;70381;-81
2022/05/11 00:41:43;;;;;;;8.70;5.40;;;;;;;9.21;77.96;101299.20;109604;1230;72320;-80
2022/05/11 00:44:12;;;;;;;11.00;6.10;;;;;;;9.21;76.83;101300.19;109622;1232;68313;-80
2022/05/11 00:46:56;;;;;;;10.40;5.70;;;;;;;9.17;76.30;101300.64;110191;1230;71218;-80
2022/05/11 00:49:50;;;;;;;8.70;5.00;;;;;;;9.12;76.74;101301.79;109798;1233;61228;-80
2022/05/11 00:52:41;;;;;;;10.40;6.00;;;;;;;9.08;78.09;101303.23;109894;1230;60911;-80
2022/05/11 00:55:22;;;;;;;9.00;5.40;;;;;;;9.07;78.40;101305.19;109763;1232;72174;-80
2022/05/11 00:58:07;;;;;;;10.00;6.00;;;;;;;9.09;78.10;101298.84;109657;1230;72214;-80
2022/05/11 01:00:36;;;;;;;8.60;5.00;;;;;;;9.13;78.25;101303.29;110428;1228;68581;-82
2022/05/11 01:03:38;;;;;;;8.90;5.20;;;;;;;9.12;78.18;101297.45;109901;1229;74260;-83
2022/05/11 01:06:10;;;;;;;9.40;5.20;;;;;;;9.03;77.49;101287.00;110996;1230;61018;-83
2022/05/11 01:09:33;;;;;;;8.50;5.50;;;;;;;9.09;78.35;101297.41;111086;1230;57896;-81
2022/05/11 01:12:05;;;;;;;9.10;5.60;;;;;;;9.10;78.45;101302.10;109557;1230;73464;-79
2022/05/11 01:14:38;;;;;;;9.90;5.80;;;;;;;9.06;78.66;101300.58;109869;1230;71133;-80
2022/05/11 01:17:06;;;;;;;9.90;5.60;;;;;;;9.07;78.73;101302.05;109836;1229;67945;-80
2022/05/11 01:19:40;;;;;;;11.70;6.60;;;;;;;9.11;78.64;101302.17;109728;1230;73891;-79
2022/05/11 01:22:35;;;;;;;9.50;5.60;;;;;;;9.13;78.81;101303.08;109945;1230;60598;-80
2022/05/11 01:25:06;;;;;;;9.70;6.00;;;;;;;9.14;78.93;101303.92;110111;1228;61204;-81
2022/05/11 01:27:43;;;;;;;9.30;5.30;;;;;;;9.10;78.89;101302.95;110040;1230;74575;-81
2022/05/11 01:30:19;;;;;;;8.30;5.60;;;;;;;9.11;78.86;101302.49;110007;1230;69571;-81
2022/05/11 01:32:54;;;;;;;8.90;5.60;;;;;;;9.10;78.85;101305.23;110410;1230;67942;-84
2022/05/11 01:36:02;;;;;;;8.50;5.60;;;;;;;9.09;78.86;101307.54;110368;1228;71200;-79
2022/05/11 01:38:45;;;;;;;9.70;5.60;;;;;;;9.03;79.30;101307.17;109989;1230;60495;-81
2022/05/11 01:41:49;;;;;;;9.00;5.80;;;;;;;9.00;79.67;101305.55;109801;1232;58960;-81
2022/05/11 01:44:20;;;;;;;9.30;5.90;;;;;;;9.00;79.43;101305.95;109132;1230;932737;-79
2022/05/11 01:46:52;;;;;;;8.60;6.00;;;;;;;8.96;79.57;101303.36;109924;1232;70920;-80
2022/05/11 01:49:22;;;;;;;8.90;6.20;;;;;;;8.93;80.09;101302.48;110105;1230;70509;-80
2022/05/11 01:51:50;;;;;;;9.70;6.40;;;;;;;8.91;80.06;101300.88;109960;1230;73537;-81
2022/05/11 01:54:18;;;;;;;10.00;5.80;;;;;;;8.94;80.02;101301.75;109848;1230;61016;-80
2022/05/11 01:56:46;;;;;;;8.10;5.90;;;;;;;8.96;79.65;101299.75;110061;1230;60515;-82
2022/05/11 01:59:13;;;;;;;12.80;6.40;;;;;;;8.96;79.81;101302.17;110042;1231;70309;-81
2022/05/11 02:01:41;;;;;;;9.30;5.90;;;;;;;8.93;79.77;101299.20;110042;1230;72238;-81
2022/05/11 02:09:43;;;;;;;8.90;5.80;;;;;;;8.75;79.86;101292.20;109725;1231;61218;-79
2022/05/11 02:12:12;;;;;;;10.50;6.10;;;;;;;8.70;80.27;101293.21;109672;1228;60485;-80
2022/05/11 02:14:40;;;;;;;13.40;6.10;;;;;;;8.66;80.50;101294.44;109782;1230;71644;-79
2022/05/11 02:17:07;;;;;;;9.60;6.10;;;;;;;8.61;80.60;101291.25;110398;1229;69595;-79
2022/05/11 02:19:35;;;;;;;11.30;6.60;;;;;;;8.55;80.87;101284.64;109992;1230;68816;-80
2022/05/11 02:22:03;;;;;;;9.80;6.10;;;;;;;8.50;80.91;101283.35;109766;1230;71625;-80
2022/05/11 02:24:30;;;;;;;9.60;6.30;;;;;;;8.46;81.00;101284.44;111014;1229;61222;-82
2022/05/11 02:27:03;;;;;;;8.00;6.20;;;;;;;8.41;81.09;101286.97;110450;1230;61292;-81
2022/05/11 02:29:31;;;;;;;9.30;6.60;;;;;;;8.39;81.30;101284.78;109947;1231;71257;-82
2022/05/11 02:31:58;;;;;;;10.10;6.20;;;;;;;8.39;81.14;101287.75;109916;1230;69698;-79
2022/05/11 02:37:12;;;;;;;8.90;6.40;;;;;;;8.27;81.07;101285.60;110414;1230;73422;-79
2022/05/11 02:39:40;;;;;;;9.80;7.30;;;;;;;8.20;81.32;101285.26;110686;1230;63961;-84
2022/05/11 02:42:12;;;;;;;14.40;7.10;;;;;;;8.15;81.71;101287.79;111413;1227;59780;-82
2022/05/11 02:44:40;;;;;;;10.30;6.40;;;;;;;8.11;81.79;101289.73;111577;1227;70976;-84
2022/05/11 02:47:08;;;;;;;9.00;6.80;;;;;;;8.07;81.86;101289.23;111218;1229;72016;-79
2022/05/11 02:49:35;;;;;;;11.60;6.80;;;;;;;8.05;81.96;101289.91;110755;1227;69222;-80
2022/05/11 02:52:03;;;;;;;16.30;6.90;;;;;;;8.02;82.03;101294.75;110680;1228;73122;-80
2022/05/11 02:54:30;;;;;;;11.60;6.90;;;;;;;7.96;82.01;101292.41;109738;1230;62572;-81
2022/05/11 02:56:58;;;;;;;8.60;6.80;;;;;;;7.93;82.03;101294.86;110218;1228;60339;-79
2022/05/11 02:59:25;;;;;;;11.20;7.60;;;;;;;7.89;82.29;101292.13;110448;1228;72221;-82
2022/05/11 03:01:53;;;;;;;11.10;7.90;;;;;;;7.90;82.63;101293.83;110563;1228;71702;-81
2022/05/11 03:04:21;;;;;;;11.80;7.40;;;;;;;7.90;82.54;101291.89;110557;1228;68453;-81
2022/05/11 03:06:57;;;;;;;13.00;6.90;;;;;;;7.89;82.39;101295.91;111340;1227;73020;-81
2022/05/11 03:09:45;;;;;;;11.00;7.40;;;;;;;7.91;82.37;101298.42;110915;1226;62134;-83
2022/05/11 03:12:16;;;;;;;10.70;7.00;;;;;;;7.88;82.05;101294.26;110904;1229;60831;-82
2022/05/11 03:14:44;;;;;;;10.60;6.70;;;;;;;7.93;82.08;101298.34;111218;1228;72600;-83
2022/05/11 03:17:14;;;;;;;10.00;7.20;;;;;;;7.95;81.89;101303.40;110950;1228;70057;-84
2022/05/11 03:19:43;;;;;;;10.30;6.90;;;;;;;7.96;81.45;101304.91;110908;1230;67884;-82
2022/05/11 03:22:13;;;;;;;13.90;7.30;;;;;;;7.93;81.13;101307.70;110973;1230;71151;-82
2022/05/11 03:24:53;;;;;;;11.30;6.80;;;;;;;7.89;81.29;101309.46;110912;1230;60569;-82
2022/05/11 03:27:54;;;;;;;10.30;7.20;;;;;;;7.86;81.75;101313.77;111499;1229;60679;-83
2022/05/11 03:35:39;;;;;;;15.10;7.90;;;;;;;7.68;82.03;101322.33;111333;1232;72144;-84
2022/05/11 03:39:52;;;;;;;12.60;7.40;;;;;;;7.63;82.64;101329.33;110977;1235;70744;-85
2022/05/11 03:43:06;;;;;;;11.30;6.80;;;;;;;7.68;81.45;101328.36;110054;1238;71621;-83
2022/05/11 03:45:35;;;;;;;12.40;7.90;;;;;;;7.71;80.55;101329.08;109965;1238;61366;-83
2022/05/11 03:52:01;;;;;;;13.50;9.00;;;;;;;7.79;80.26;101329.42;110487;1228;957596;-84
2022/05/11 03:55:19;;;;;;;13.70;8.50;;;;;;;7.85;80.38;101333.63;111214;1228;69356;-84
2022/05/11 03:57:48;;;;;;;20.20;9.00;;;;;;;7.93;80.40;101331.80;111342;1231;69733;-83
2022/05/11 04:04:22;;;;;;;18.30;10.20;;;;;;;8.26;82.24;101341.55;110559;1235;60612;-80
2022/05/11 04:06:50;;;;;;;15.70;10.00;;;;;;;8.40;81.75;101341.70;110670;1235;60414;-82
2022/05/11 04:09:18;;;;;;;16.50;8.60;;;;;;;8.54;81.07;101339.20;110233;1234;71641;-82
2022/05/11 04:11:47;;;;;;;14.30;8.40;;;;;;;8.67;79.60;101344.42;109886;1235;70306;-80
2022/05/11 04:14:22;;;;;;;17.10;10.10;;;;;;;8.71;79.15;101347.81;110471;1234;68016;-81
2022/05/11 04:17:18;;;;;;;17.50;9.60;;;;;;;8.75;79.00;101353.83;110194;1233;71217;-80
2022/05/11 04:19:50;;;;;;;15.50;9.40;;;;;;;8.83;79.04;101356.20;110093;1232;62746;-78
2022/05/11 04:26:00;;;;;;;16.20;8.90;;;;;;;9.11;77.90;101358.46;109859;1232;73049;-78
2022/05/11 04:28:30;;;;;;;18.00;9.10;;;;;;;9.16;77.69;101356.84;109539;1235;72988;-78
2022/05/11 04:31:08;;;;;;;19.40;10.10;;;;;;;9.16;77.56;101355.25;109676;1232;71294;-78
2022/05/11 04:33:47;;;;;;;14.80;10.00;;;;;;;9.23;77.62;101356.59;110361;1232;72347;-78
2022/05/11 04:36:17;;;;;;;20.70;9.80;;;;;;;9.35;77.18;101357.66;109862;1234;62260;-80
2022/05/11 04:38:44;;;;;;;23.20;11.40;;;;;;;9.48;76.95;101359.33;109624;1234;58987;-78
2022/05/11 04:41:12;;;;;;;21.40;10.20;;;;;;;9.58;76.80;101353.88;109629;1233;73541;-77
2022/05/11 04:43:39;;;;;;;19.20;9.60;;;;;;;9.70;76.80;101356.31;109661;1235;70866;-79
2022/05/11 04:46:09;;;;;;;16.30;9.70;;;;;;;9.81;76.68;101360.17;109914;1234;69645;-79
2022/05/11 04:48:37;;;;;;;17.40;10.20;;;;;;;9.92;76.69;101360.44;109793;1232;74877;-80
2022/05/11 04:51:04;;;;;;;18.30;10.20;;;;;;;10.01;76.50;101358.14;109777;1235;61261;-78
2022/05/11 04:53:31;;;;;;;13.10;9.00;;;;;;;10.08;76.65;101358.96;109848;1232;60573;-79
2022/05/11 04:56:00;;;;;;;19.80;10.00;;;;;;;10.17;76.41;101359.09;109616;1233;70555;-80
2022/05/11 04:58:28;;;;;;;15.60;9.60;;;;;;;10.20;76.80;101357.03;109696;1232;70391;-79
2022/05/11 05:00:56;;;;;;;20.50;10.20;;;;;;;10.26;77.06;101359.23;109703;1235;70780;-80
2022/05/11 05:03:25;;;;;;;21.60;9.40;;;;;;;10.33;77.26;101357.64;110066;1234;73797;-80
2022/05/11 05:05:54;;;;;;;14.10;9.40;;;;;;;10.41;77.30;101360.13;109700;1233;61841;-77
2022/05/11 05:08:21;;;;;;;12.00;9.00;;;;;;;10.48;77.02;101358.77;109663;1235;60314;-78
2022/05/11 05:10:54;;;;;;;15.80;10.70;;;;;;;10.58;77.03;101361.67;109430;1234;72909;-77
2022/05/11 05:13:21;;;;;;;15.80;10.10;;;;;;;10.66;76.94;101359.10;109634;1235;70053;-81
2022/05/11 05:15:57;;;;;;;16.20;10.80;;;;;;;10.76;76.93;101359.52;109397;1234;71025;-79
2022/05/11 05:18:24;;;;;;;15.70;9.50;;;;;;;10.91;76.35;101361.66;109470;1235;72146;-77
2022/05/11 05:20:52;;;;;;;17.90;10.50;;;;;;;11.04;76.02;101364.70;109822;1234;62994;-79
2022/05/11 05:23:22;;;;;;;20.30;11.10;;;;;;;11.09;75.69;101365.05;109809;1235;59675;-78
2022/05/11 05:25:50;;;;;;;18.50;10.80;;;;;;;11.19;75.53;101359.19;109785;1235;73972;-77
2022/05/11 05:31:09;;;;;;;18.60;9.30;;;;;;;11.53;74.05;101357.53;109397;1235;69225;-77
2022/05/11 05:33:39;;;;;;;13.60;9.20;;;;;;;11.67;73.14;101358.46;109599;1236;71154;-78
2022/05/11 05:36:10;;;;;;;14.70;9.00;;;;;;;11.79;72.43;101358.04;109577;1235;62239;-77
2022/05/11 05:38:43;;;;;;;17.20;9.70;;;;;;;11.94;71.82;101359.99;109484;1235;60104;-77
2022/05/11 05:41:12;;;;;;;15.20;9.50;;;;;;;12.07;71.36;101358.28;109937;1232;74067;-78
2022/05/11 05:43:39;;;;;;;19.00;10.30;;;;;;;12.20;71.06;101358.41;109870;1235;72269;-78
2022/05/11 05:46:07;;;;;;;13.20;7.80;;;;;;;12.35;70.24;101358.23;110167;1234;69329;-77
2022/05/11 05:48:34;;;;;;;16.00;7.50;;;;;;;12.50;69.45;101365.95;109727;1232;74450;-76
2022/05/11 05:51:14;;;;;;;12.10;9.20;;;;;;;12.60;69.02;101363.30;109851;1235;62851;-77
2022/05/11 05:53:45;;;;;;;15.90;9.50;;;;;;;12.71;68.79;101359.38;110123;1232;59408;-80
2022/05/11 05:56:14;;;;;;;16.60;9.00;;;;;;;12.84;68.29;101356.89;110209;1232;70956;-80
2022/05/11 05:58:47;;;;;;;15.50;9.10;;;;;;;12.97;68.05;101362.92;110331;1233;71466;-81
2022/05/11 06:01:19;;;;;;;19.10;9.90;;;;;;;13.13;67.90;101364.27;110422;1235;68095;-80
2022/05/11 06:04:26;;;;;;;13.10;7.20;;;;;;;13.33;67.40;101362.10;110109;1232;72697;-79
2022/05/11 06:06:55;;;;;;;12.10;8.00;;;;;;;13.49;65.46;101363.69;110040;1235;60950;-77
2022/05/11 06:09:25;;;;;;;18.60;10.20;;;;;;;13.53;65.40;101363.59;109832;1235;59363;-79
2022/05/11 06:11:52;;;;;;;14.60;8.30;;;;;;;13.68;64.73;101367.35;109824;1235;72860;-79
2022/05/11 06:14:21;;;;;;;10.00;7.30;;;;;;;13.79;63.99;101366.21;110435;1232;70810;-78
2022/05/11 06:17:02;;;;;;;14.40;8.90;;;;;;;13.89;62.91;101366.52;110160;1232;69430;-80
2022/05/11 06:19:30;;;;;;;13.70;8.20;;;;;;;13.91;63.10;101365.23;110103;1233;73067;-81
2022/05/11 06:21:58;;;;;;;13.30;7.30;;;;;;;14.05;62.03;101361.89;110129;1235;62648;-78
2022/05/11 06:25:06;;;;;;;12.90;7.20;;;;;;;14.18;60.82;101363.54;109727;1234;60955;-79
2022/05/11 06:27:34;;;;;;;11.70;7.20;;;;;;;14.31;59.58;101366.41;110259;1232;74020;-78
2022/05/11 06:30:05;;;;;;;13.00;8.70;;;;;;;14.40;59.42;101370.25;110391;1232;72309;-80
2022/05/11 06:32:34;;;;;;;12.00;8.10;;;;;;;14.57;58.92;101377.38;110180;1232;71162;-78
2022/05/11 06:35:02;;;;;;;12.50;7.00;;;;;;;14.73;57.68;101376.82;110040;1235;73554;-78
2022/05/11 06:37:30;;;;;;;12.90;6.60;;;;;;;14.86;56.63;101373.72;110362;1232;61023;-79
2022/05/11 06:40:00;;;;;;;9.80;6.40;;;;;;;14.95;55.73;101376.34;110447;1233;59993;-79
2022/05/11 06:42:48;;;;;;;9.80;6.00;;;;;;;15.03;54.70;101374.90;110361;1233;71428;-79
2022/05/11 06:46:33;;;;;;;10.30;6.50;;;;;;;15.14;54.22;101377.60;110510;1232;70527;-80
2022/05/11 06:49:01;;;;;;;13.50;6.30;;;;;;;15.24;54.82;101371.09;110433;1235;71762;-80
2022/05/11 06:59:20;;;;;;;15.10;6.00;;;;;;;15.81;52.17;101375.23;110402;1234;59385;-80
2022/05/11 07:01:59;;;;;;;13.20;6.80;;;;;;;15.93;50.94;101371.25;110579;1232;71808;-80
2022/05/11 07:04:27;;;;;;;11.60;6.20;;;;;;;16.02;51.65;101368.83;110329;1235;69987;-80
2022/05/11 07:06:57;;;;;;;11.40;5.90;;;;;;;16.21;49.52;101367.80;110547;1233;67977;-78
2022/05/11 07:09:31;;;;;;;8.00;4.80;;;;;;;16.30;49.94;101364.05;110656;1234;73057;-79
2022/05/11 07:12:17;;;;;;;9.20;5.20;;;;;;;16.45;48.33;101364.68;109997;1234;61049;-80
2022/05/11 07:14:51;;;;;;;8.10;4.30;;;;;;;16.54;47.53;101362.64;110030;1235;61935;-79
2022/05/11 07:17:35;;;;;;;9.40;5.10;;;;;;;16.59;46.12;101358.70;109641;1235;73260;-80
2022/05/11 07:20:07;;;;;;;15.60;5.60;;;;;;;16.63;46.30;101356.35;110019;1234;71855;-80
2022/05/11 07:22:38;;;;;;;12.50;5.30;;;;;;;16.73;46.55;101355.92;110302;1232;68737;-79
2022/05/11 07:25:11;;;;;;;7.70;4.70;;;;;;;16.88;45.65;101350.69;110454;1234;72010;-80
2022/05/11 07:27:39;;;;;;;7.90;4.60;;;;;;;17.00;44.91;101350.35;110599;1233;58978;-79
2022/05/11 07:31:43;;;;;;;11.30;4.60;;;;;;;17.07;44.40;101348.23;110645;1231;59396;-81
2022/05/11 07:34:11;;;;;;;11.20;4.60;;;;;;;17.24;42.53;101340.80;110304;1233;73115;-80
2022/05/11 07:36:39;;;;;;;7.30;4.40;;;;;;;17.30;42.07;101342.70;110539;1232;69565;-80
2022/05/11 07:39:08;;;;;;;5.90;4.40;;;;;;;17.32;42.43;101340.23;110533;1234;70219;-79
2022/05/11 07:41:35;;;;;;;9.00;3.40;;;;;;;17.49;40.20;101338.79;110739;1233;71670;-79
2022/05/11 07:44:03;;;;;;;11.80;4.70;;;;;;;17.57;40.59;101341.30;110529;1233;60624;-80
2022/05/11 07:46:34;;;;;;;7.40;4.00;;;;;;;17.67;39.99;101338.75;110760;1232;60901;-79
2022/05/11 07:49:05;;;;;;;14.10;4.70;;;;;;;17.67;39.88;101334.69;110629;1235;71506;-77
2022/05/11 07:51:34;;;;;;;11.20;4.30;;;;;;;17.86;40.73;101330.04;110631;1234;70827;-79
2022/05/11 08:02:04;;;;;;;11.50;4.50;;;;;;;18.31;38.37;101321.13;110798;1232;58858;-80
2022/05/11 08:04:33;;;;;;;6.80;4.00;;;;;;;18.53;37.61;101318.68;110707;1234;61327;-80
2022/05/11 08:07:01;;;;;;;7.10;3.90;;;;;;;18.56;38.00;101317.52;110636;1235;74253;-78
2022/05/11 08:09:28;;;;;;;10.00;4.10;;;;;;;18.61;37.39;101314.73;110792;1232;61449;-79
2022/05/11 08:12:30;;;;;;;9.30;3.30;;;;;;;18.77;37.25;101312.49;110631;1231;69363;-80
2022/05/11 08:15:27;;;;;;;8.60;3.20;;;;;;;18.96;36.17;101310.85;110981;1232;62996;-79
2022/05/11 08:23:28;;;;;;;7.00;3.40;;;;;;;19.18;36.24;101311.52;111048;1232;59074;-80
2022/05/11 08:26:04;;;;;;;6.20;2.80;;;;;;;19.29;33.61;101306.46;111044;1232;73408;-81
2022/05/11 08:28:32;;;;;;;6.60;3.20;;;;;;;19.38;34.60;101305.80;111059;1232;71065;-80
2022/05/11 08:34:05;;;;;;;7.90;3.10;;;;;;;19.67;33.05;101299.81;110614;1233;73116;-78
2022/05/11 08:36:38;;;;;;;6.40;2.90;;;;;;;19.77;33.07;101299.02;110989;1233;61030;-82
2022/05/11 08:39:06;;;;;;;6.10;2.60;;;;;;;19.83;31.83;101288.35;111116;1231;62269;-79
2022/05/11 08:41:50;;;;;;;5.80;2.50;;;;;;;19.81;30.79;101281.31;111041;1231;63628;-80
2022/05/11 08:54:19;;;;;;;3.30;1.80;;;;;;;20.03;26.90;101278.67;110822;1232;73681;-80
2022/05/11 08:56:52;;;;;;;6.20;2.60;;;;;;;20.12;26.86;101273.51;110504;1234;59621;-81
2022/05/11 08:59:26;;;;;;;;;;;;;;;20.21;27.15;101273.77;110059;1235;57814;-80
2022/05/11 09:06:20;;;;;;;3.80;1.80;;;;;;;20.47;27.62;101262.21;109998;1237;61566;-80
2022/05/11 09:08:48;;;;;;;7.00;2.40;;;;;;;20.39;26.90;101262.64;110198;1236;69872;-79
2022/05/11 09:11:29;;;;;;;6.40;2.30;;;;;;;20.63;26.63;101268.46;110251;1234;73625;-83
2022/05/11 09:23:09;;;;;;;3.60;1.70;;;;;;;20.90;25.64;101256.86;110720;1230;62174;-81
2022/05/11 09:27:16;;;;;;;3.30;2.00;;;;;;;20.86;24.88;101238.65;110927;1232;71876;-80
2022/05/11 09:29:44;;;;;;;3.30;1.70;;;;;;;21.07;26.04;101256.36;110820;1231;70646;-81
2022/05/11 09:32:44;;;;;;;4.90;1.90;;;;;;;21.16;25.72;101257.45;110522;1231;62965;-80
2022/05/11 09:35:38;;;;;;;4.80;1.80;;;;;;;21.21;25.13;101253.00;110946;1231;60349;-80
2022/05/11 09:38:19;;;;;;;5.50;2.00;;;;;;;21.32;25.75;101248.14;111318;1230;61058;-82
2022/05/11 09:41:19;;;;;;;5.70;1.70;;;;;;;21.47;24.88;101251.44;110898;1231;73240;-80
2022/05/11 09:43:51;;;;;;;5.10;1.90;;;;;;;21.83;24.15;101240.14;110624;1231;72000;-81
2022/05/11 09:46:41;;;;;;;3.60;1.80;;;;;;;21.95;23.76;101244.89;110758;1231;70471;-80
2022/05/11 09:49:17;;;;;;;3.40;2.20;;;;;;;21.93;23.65;101239.19;110722;1231;62395;-80
2022/05/11 09:51:50;;;;;;;3.80;1.80;;;;;;;21.83;23.35;101238.60;111096;1230;60537;-81
2022/05/11 09:55:29;;;;;;;3.50;1.50;;;;;;;21.79;22.98;101232.86;110760;1232;57291;-82
2022/05/11 10:01:52;;;;;;;5.20;1.90;;;;;;;21.66;23.66;101244.59;111267;1231;61753;-78
2022/05/11 10:04:39;;;;;;;6.50;2.20;;;;;;;21.73;23.39;101241.52;111284;1231;59325;-82
2022/05/11 10:07:15;;;;;;;3.90;1.80;;;;;;;21.75;23.13;101235.96;111203;1231;63700;-80
2022/05/11 10:09:59;;;;;;;3.50;1.80;;;;;;;21.78;22.86;101233.85;111014;1231;60687;-80
2022/05/11 10:13:35;;;;;;;2.70;1.70;;;;;;;21.77;22.80;101231.75;111125;1231;57464;-81
2022/05/11 10:37:13;;;;;;;5.60;1.70;;;;;;;23.77;23.00;101228.34;111899;1228;60388;-81
2022/05/11 10:41:03;;;;;;;3.90;1.90;;;;;;;23.87;22.20;101237.03;111451;1228;73626;-81
2022/05/11 10:44:02;;;;;;;3.30;1.60;;;;;;;24.39;22.23;101234.80;111426;1228;62140;-81
2022/05/11 10:48:32;;;;;;;4.20;1.80;;;;;;;24.62;21.02;101229.92;111613;1230;59896;-80
2022/05/11 11:01:15;;;;;;;3.00;1.70;;;;;;;25.15;20.62;101216.99;111492;1229;57569;-80
2022/05/11 11:04:24;;;;;;;3.60;1.70;;;;;;;24.88;20.91;101216.31;111383;1229;62187;-81
2022/05/11 11:11:51;;;;;;;6.30;2.00;;;;;;;24.29;21.46;101214.83;111616;1228;60023;-81
2022/05/11 11:15:16;;;;;;;4.70;2.10;;;;;;;24.15;21.97;101217.10;111284;1232;71314;-79
2022/05/11 11:21:33;;;;;;;;;;;;;;;24.34;21.73;101204.84;111208;1233;57575;-83
2022/05/11 11:36:56;;;;;;;5.70;2.20;;;;;;;25.82;21.03;101184.91;111330;1232;63256;-83
2022/05/11 11:44:57;;;;;;;4.90;1.80;;;;;;;26.56;20.35;101190.27;111154;1232;57398;-82
2022/05/11 11:47:30;;;;;;;5.80;2.10;;;;;;;26.97;19.88;101178.02;111385;1231;73486;-81
2022/05/11 11:50:46;;;;;;;4.10;1.90;;;;;;;27.08;20.07;101178.98;111332;1231;61491;-81
2022/05/11 12:59:28;;;;;;;2.50;1.60;;;;;;;29.51;16.51;101119.84;111531;1232;73754;-81
2022/05/11 13:43:53;;;;;;;3.00;1.80;;;;;;;31.34;14.42;101081.41;109750;1231;563584;-77
2022/05/11 13:55:02;;;;;;;3.20;1.80;;;;;;;30.04;15.37;101066.03;109314;1232;60454;-78
2022/05/11 13:57:37;;;;;;;4.70;2.60;;;;;;;30.81;15.10;101055.04;109595;1233;63360;-80
2022/05/11 14:00:15;;;;;;;4.00;1.70;;;;;;;31.54;14.23;101053.42;109598;1234;58810;-78
2022/05/11 14:02:56;;;;;;;4.80;1.70;;;;;;;31.95;14.05;101052.54;109998;1231;62322;-77
2022/05/11 14:09:47;;;;;;;5.90;1.90;;;;;;;31.25;13.90;101049.52;111096;1231;60748;-82
2022/05/11 14:21:37;;;;;;;3.20;1.70;;;;;;;32.34;13.48;101047.07;110823;1231;59345;-79
2022/05/11 14:25:40;;;;;;;5.30;1.70;;;;;;;31.67;13.95;101040.89;111265;1231;57447;-81
2022/05/11 15:05:38;;;;;;;5.10;1.70;;;;;;;32.51;13.09;101036.09;111808;1228;63085;-78
2022/05/11 15:24:05;;;;;;;5.40;2.00;;;;;;;32.23;12.63;101030.23;111609;1228;60076;-83
2022/05/11 15:26:41;;;;;;;6.60;2.10;;;;;;;31.28;13.23;101026.33;111402;1230;62466;-80
2022/05/11 15:29:11;;;;;;;6.10;2.30;;;;;;;31.06;13.39;101021.30;111191;1230;58812;-79
2022/05/11 15:33:15;;;;;;;3.90;1.80;;;;;;;31.40;13.22;101026.54;111254;1228;61541;-80
2022/05/11 16:24:58;;;;;;;5.50;2.30;;;;;;;28.42;16.90;101032.66;110864;1232;62584;-79
2022/05/11 16:31:40;;;;;;;4.10;1.80;;;;;;;27.78;17.06;101032.00;111539;1228;61203;-80
2022/05/11 16:34:08;;;;;;;5.50;2.10;;;;;;;27.44;17.04;101030.34;110844;1232;73693;-80
2022/05/11 16:36:38;;;;;;;5.50;2.30;;;;;;;26.81;18.44;101030.74;110958;1231;58411;-82
2022/05/11 17:21:32;;;;;;;9.70;3.40;;;;;;;21.09;37.00;101044.63;111057;1229;73414;31
2022/05/11 17:24:03;;;;;;;6.40;3.10;;;;;;;20.66;38.97;101046.27;110877;1233;58835;-80
2022/05/11 17:26:36;;;;;;;7.30;2.70;;;;;;;20.14;40.18;101052.83;110465;1235;60521;-80
2022/05/11 17:29:05;;;;;;;8.00;2.60;;;;;;;19.77;41.10;101053.76;110380;1235;73870;-79
2022/05/11 17:31:36;;;;;;;7.60;2.90;;;;;;;19.71;40.70;101056.53;110817;1234;72865;-81
2022/05/11 17:34:07;;;;;;;10.80;3.30;;;;;;;19.56;40.00;101059.65;110815;1235;70941;-80
2022/05/11 17:36:36;;;;;;;7.60;3.30;;;;;;;19.36;38.65;101062.38;110789;1234;73562;-79
2022/05/11 17:39:06;;;;;;;7.50;3.20;;;;;;;19.00;40.51;101064.95;110395;1233;61775;-81
2022/05/11 17:41:35;;;;;;;6.90;2.80;;;;;;;18.68;41.21;101065.85;110569;1234;60959;-80
2022/05/11 17:44:07;;;;;;;6.90;3.30;;;;;;;18.45;40.52;101070.14;110353;1234;73360;-80
2022/05/11 17:46:35;;;;;;;8.60;3.30;;;;;;;18.09;43.97;101069.46;110222;1235;71306;-81
2022/05/11 21:42:48;;;;;;;8.00;3.60;;;;;;;11.88;61.70;101176.14;111120;1231;61175;-82
2022/05/11 21:45:23;;;;;;;8.50;3.40;;;;;;;11.87;61.84;101177.05;111601;1230;74330;-87
2022/05/11 22:04:08;;;;;;;6.70;3.30;;;;;;;11.61;63.31;101161.62;110311;1228;957641;-80
2022/05/11 22:06:40;;;;;;;7.40;3.60;;;;;;;11.70;63.73;101181.94;110671;1230;73024;-79
2022/05/11 22:09:10;;;;;;;6.20;3.70;;;;;;;11.69;64.02;101181.96;110919;1231;73375;-81
2022/05/11 22:11:42;;;;;;;6.60;3.80;;;;;;;11.46;62.53;101149.70;111382;1230;70173;-83
2022/05/11 22:22:04;;;;;;;7.90;3.50;;;;;;;11.50;64.41;101185.18;111299;1231;62058;-85
2022/05/11 22:24:33;;;;;;;9.20;3.90;;;;;;;11.40;63.14;101170.55;111625;1228;73889;-83
2022/05/11 22:31:08;;;;;;;7.80;3.80;;;;;;;11.48;64.13;101190.77;111042;1230;69537;-85
2022/05/11 22:54:47;;;;;;;7.10;3.20;;;;;;;11.14;65.11;101177.68;111395;1227;71869;31
2022/05/11 22:58:26;;;;;;;5.60;3.90;;;;;;;11.11;64.90;101181.05;111366;1228;72262;31
2022/05/11 23:00:53;;;;;;;7.50;3.50;;;;;;;11.05;65.42;101177.06;111222;1231;59054;-81
2022/05/11 23:03:21;;;;;;;7.60;3.40;;;;;;;11.00;65.39;101182.30;111312;1230;59433;-82
2022/05/11 23:05:48;;;;;;;7.80;3.20;;;;;;;11.00;65.82;101179.70;111369;1228;71943;-81
2022/05/11 23:08:16;;;;;;;10.20;3.90;;;;;;;10.97;65.92;101181.13;111614;1228;69565;-82
2022/05/11 23:10:45;;;;;;;7.30;3.20;;;;;;;10.97;65.72;101182.66;111274;1231;69872;-84
2022/05/11 23:13:21;;;;;;;6.50;3.70;;;;;;;10.97;64.96;101182.98;111217;1228;74721;-82
2022/05/11 23:15:51;;;;;;;6.00;3.40;;;;;;;10.95;63.62;101181.97;111387;1231;61067;-85
2022/05/11 23:30:41;;;;;;;6.90;3.90;;;;;;;10.98;66.96;101173.52;111583;1229;70278;-83
2022/05/11 23:33:09;;;;;;;6.50;3.60;;;;;;;10.98;66.97;101173.56;111412;1229;73600;-82
2022/05/11 23:36:45;;;;;;;6.60;3.80;;;;;;;10.93;66.84;101172.29;111363;1229;62179;31
2022/05/11 23:39:12;;;;;;;7.70;3.70;;;;;;;10.85;67.19;101180.69;111718;1228;61496;-83
2022/05/11 23:41:40;;;;;;;7.80;3.70;;;;;;;10.74;67.38;101168.14;111620;1231;71504;-80
2022/05/11 23:44:08;;;;;;;9.30;4.40;;;;;;;10.74;67.58;101177.76;111487;1228;71868;-84
2022/05/11 23:46:54;;;;;;;10.30;4.20;;;;;;;10.78;68.14;101185.52;111154;1228;68389;31
2022/05/11 23:49:22;;;;;;;7.30;3.80;;;;;;;10.62;67.99;101160.20;111421;1228;73355;-82
2022/05/11 23:57:09;;;;;;;6.90;3.80;;;;;;;10.68;68.03;101190.84;111232;1228;62024;31
